createdAt,value
2018-03-22T00:02:24.459Z,6.37
2018-03-22T00:04:53.124Z,6.51
2018-03-22T00:07:20.600Z,6.78
2018-03-22T00:09:48.073Z,6.31
2018-03-22T00:12:15.806Z,5.86
2018-03-22T00:14:43.269Z,5.79
2018-03-22T00:17:10.744Z,6.37
2018-03-22T00:19:38.505Z,6.13
2018-03-22T00:22:06.340Z,5.86
2018-03-22T00:24:33.802Z,6.03
2018-03-22T00:27:01.706Z,5.87
2018-03-22T00:29:29.168Z,6.25
2018-03-22T00:31:56.636Z,6.35
2018-03-22T00:34:24.483Z,5.49
2018-03-22T00:36:51.937Z,5.76
2018-03-22T00:39:19.447Z,5.75
2018-03-22T00:41:47.162Z,5.99
2018-03-22T00:44:14.638Z,6.08
2018-03-22T00:46:42.093Z,6.36
2018-03-22T00:49:09.870Z,6.02
2018-03-22T00:51:37.316Z,5.34
2018-03-22T00:54:04.777Z,6.00
2018-03-22T00:56:32.533Z,5.31
2018-03-22T00:58:59.997Z,5.90
2018-03-22T01:01:27.460Z,5.96
2018-03-22T01:03:55.217Z,5.96
2018-03-22T01:06:22.675Z,5.97
2018-03-22T01:08:50.138Z,6.29
2018-03-22T01:11:17.913Z,5.73
2018-03-22T01:13:45.374Z,5.40
2018-03-22T01:16:12.833Z,6.27
2018-03-22T01:18:40.602Z,6.32
2018-03-22T01:21:08.066Z,6.52
2018-03-22T01:23:35.897Z,5.82
2018-03-22T01:26:03.900Z,7.08
2018-03-22T01:28:31.357Z,7.84
2018-03-22T01:30:58.818Z,9.07
2018-03-22T01:33:26.581Z,8.02
2018-03-22T01:35:54.040Z,6.54
2018-03-22T01:38:21.502Z,6.11
2018-03-22T01:40:49.279Z,5.84
2018-03-22T01:43:16.748Z,5.63
2018-03-22T01:45:44.237Z,5.48
2018-03-22T01:48:11.956Z,5.51
2018-03-22T01:50:39.421Z,5.48
2018-03-22T01:53:13.648Z,5.42
2018-03-22T01:55:41.102Z,5.53
2018-03-22T01:58:08.570Z,5.76
2018-03-22T02:00:36.633Z,5.47
2018-03-22T02:03:05.168Z,5.49
2018-03-22T02:05:32.633Z,5.56
2018-03-22T02:08:00.557Z,4.94
2018-03-22T02:10:28.014Z,4.46
2018-03-22T02:12:55.475Z,4.77
2018-03-22T02:15:23.239Z,4.82
2018-03-22T02:20:32.902Z,5.13
2018-03-22T02:23:00.366Z,4.92
2018-03-22T02:25:28.201Z,4.92
2018-03-22T02:27:55.901Z,4.95
2018-03-22T02:30:23.364Z,4.82
2018-03-22T02:32:50.822Z,4.72
2018-03-22T02:35:18.893Z,4.82
2018-03-22T02:37:46.352Z,4.71
2018-03-22T02:40:13.849Z,4.58
2018-03-22T02:42:41.595Z,4.48
2018-03-22T02:45:09.681Z,4.53
2018-03-22T02:47:37.147Z,4.88
2018-03-22T02:50:04.824Z,4.76
2018-03-22T02:52:32.281Z,4.52
2018-03-22T02:54:59.740Z,4.19
2018-03-22T02:57:27.815Z,4.87
2018-03-22T03:02:37.545Z,5.52
2018-03-22T03:05:05.011Z,5.35
2018-03-22T03:07:32.470Z,5.08
2018-03-22T03:10:00.228Z,5.92
2018-03-22T03:12:27.694Z,5.72
2018-03-22T03:14:55.160Z,5.72
2018-03-22T03:17:22.914Z,5.90
2018-03-22T03:19:50.395Z,6.14
2018-03-22T03:22:17.857Z,6.17
2018-03-22T03:24:45.606Z,5.85
2018-03-22T03:27:13.762Z,5.78
2018-03-22T03:29:41.235Z,5.54
2018-03-22T03:32:08.870Z,5.70
2018-03-22T03:34:36.338Z,5.89
2018-03-22T03:37:03.889Z,5.16
2018-03-22T03:39:31.589Z,5.13
2018-03-22T03:41:59.056Z,5.04
2018-03-22T03:44:26.512Z,4.97
2018-03-22T03:46:54.277Z,5.10
2018-03-22T03:49:21.737Z,5.13
2018-03-22T03:51:49.574Z,5.45
2018-03-22T03:54:17.569Z,4.74
2018-03-22T03:56:45.028Z,4.98
2018-03-22T03:59:12.485Z,5.06
2018-03-22T04:01:40.264Z,5.07
2018-03-22T04:04:07.732Z,5.23
2018-03-22T04:06:35.190Z,5.24
2018-03-22T04:09:02.946Z,5.19
2018-03-22T04:11:30.402Z,5.59
2018-03-22T04:13:57.866Z,4.91
2018-03-22T04:16:25.587Z,4.92
2018-03-22T04:18:53.050Z,4.92
2018-03-22T04:21:20.599Z,5.00
2018-03-22T04:23:48.626Z,4.77
2018-03-22T04:26:16.077Z,4.62
2018-03-22T04:28:43.984Z,4.94
2018-03-22T04:31:11.635Z,4.83
2018-03-22T04:33:39.098Z,4.84
2018-03-22T04:36:06.552Z,4.24
2018-03-22T04:38:34.310Z,4.23
2018-03-22T04:41:01.779Z,4.03
2018-03-22T04:43:29.538Z,3.90
2018-03-22T04:45:57.314Z,4.24
2018-03-22T04:48:24.770Z,3.94
2018-03-22T04:50:52.228Z,4.17
2018-03-22T04:53:19.983Z,3.59
2018-03-22T04:55:47.443Z,3.73
2018-03-22T04:58:14.918Z,4.12
2018-03-22T05:00:42.685Z,4.31
2018-03-22T05:03:10.177Z,4.23
2018-03-22T05:05:37.641Z,4.01
2018-03-22T05:08:05.437Z,4.24
2018-03-22T05:10:32.917Z,3.79
2018-03-22T05:13:00.373Z,4.32
2018-03-22T05:15:28.032Z,4.16
2018-03-22T05:17:55.490Z,4.21
2018-03-22T05:20:22.952Z,3.57
2018-03-22T05:22:50.746Z,3.83
2018-03-22T05:25:18.217Z,3.71
2018-03-22T05:27:45.677Z,4.14
2018-03-22T05:30:13.785Z,4.27
2018-03-22T05:32:41.242Z,4.08
2018-03-22T05:35:08.713Z,4.11
2018-03-22T05:37:36.734Z,4.33
2018-03-22T05:40:04.194Z,4.62
2018-03-22T05:42:31.658Z,4.16
2018-03-22T05:44:59.725Z,3.89
2018-03-22T05:47:27.220Z,4.41
2018-03-22T05:49:54.686Z,4.34
2018-03-22T05:52:22.415Z,4.40
2018-03-22T05:54:49.872Z,4.63
2018-03-22T05:57:17.332Z,4.57
2018-03-22T05:59:45.127Z,4.97
2018-03-22T06:02:12.590Z,4.72
2018-03-22T06:04:40.076Z,4.60
2018-03-22T06:07:07.737Z,4.74
2018-03-22T06:09:35.218Z,5.06
2018-03-22T06:12:02.682Z,5.31
2018-03-22T06:14:30.477Z,5.48
2018-03-22T06:16:57.937Z,5.49
2018-03-22T06:19:25.410Z,5.45
2018-03-22T06:21:53.171Z,5.35
2018-03-22T06:24:20.629Z,5.05
2018-03-22T06:26:48.259Z,5.60
2018-03-22T06:29:16.151Z,5.96
2018-03-22T06:31:43.953Z,5.32
2018-03-22T06:34:11.405Z,5.39
2018-03-22T06:36:39.164Z,5.72
2018-03-22T06:39:06.641Z,5.42
2018-03-22T06:41:34.108Z,5.92
2018-03-22T06:44:02.139Z,6.02
2018-03-22T06:46:29.592Z,6.20
2018-03-22T06:48:57.066Z,5.95
2018-03-22T06:51:24.786Z,5.87
2018-03-22T06:53:52.249Z,6.30
2018-03-22T06:56:19.697Z,6.52
2018-03-22T06:58:47.523Z,6.01
2018-03-22T07:01:14.978Z,5.92
2018-03-22T07:03:42.434Z,6.56
2018-03-22T07:06:10.201Z,5.81
2018-03-22T07:08:37.658Z,5.25
2018-03-22T07:11:05.118Z,5.90
2018-03-22T07:13:32.878Z,6.02
2018-03-22T07:16:00.329Z,6.47
2018-03-22T07:18:27.785Z,6.62
2018-03-22T07:20:55.569Z,6.45
2018-03-22T07:23:23.030Z,6.84
2018-03-22T07:25:50.494Z,6.10
2018-03-22T07:28:18.444Z,6.77
2018-03-22T07:30:45.902Z,6.91
2018-03-22T07:33:13.865Z,6.69
2018-03-22T07:35:41.876Z,6.91
2018-03-22T07:38:09.342Z,6.90
2018-03-22T07:40:36.801Z,7.09
2018-03-22T07:43:10.081Z,7.34
2018-03-22T07:45:37.538Z,7.01
2018-03-22T07:48:04.994Z,6.71
2018-03-22T07:50:32.830Z,7.44
2018-03-22T07:53:00.293Z,6.81
2018-03-22T07:55:27.748Z,6.66
2018-03-22T07:57:55.469Z,6.96
2018-03-22T08:00:22.969Z,7.17
2018-03-22T08:02:50.436Z,7.78
2018-03-22T08:05:18.158Z,6.98
2018-03-22T08:07:45.621Z,8.22
2018-03-22T08:10:13.086Z,6.91
2018-03-22T08:12:40.851Z,7.71
2018-03-22T08:15:08.314Z,8.25
2018-03-22T08:17:35.765Z,7.82
2018-03-22T08:20:03.521Z,7.96
2018-03-22T08:22:30.984Z,8.14
2018-03-22T08:24:58.452Z,8.53
2018-03-22T08:27:26.217Z,7.28
2018-03-22T08:29:53.677Z,7.84
2018-03-22T08:32:21.136Z,8.31
2018-03-22T08:34:50.080Z,7.32
2018-03-22T08:37:17.534Z,8.47
2018-03-22T08:39:44.990Z,7.72
2018-03-22T08:42:12.820Z,7.05
2018-03-22T08:44:40.278Z,6.92
2018-03-22T08:47:07.741Z,7.83
2018-03-22T08:49:35.510Z,7.99
2018-03-22T08:52:02.979Z,7.58
2018-03-22T08:54:30.440Z,7.46
2018-03-22T08:56:58.150Z,7.24
2018-03-22T08:59:25.625Z,6.80
2018-03-22T09:01:53.089Z,6.97
2018-03-22T09:04:20.877Z,7.29
2018-03-22T09:06:48.333Z,7.39
2018-03-22T09:09:15.798Z,7.39
2018-03-22T09:11:43.873Z,7.25
2018-03-22T09:14:11.337Z,7.36
2018-03-22T09:16:38.806Z,8.08
2018-03-22T09:19:06.878Z,9.10
2018-03-22T09:21:34.343Z,8.13
2018-03-22T09:24:01.805Z,7.57
2018-03-22T09:26:29.556Z,7.63
2018-03-22T09:28:57.024Z,8.37
2018-03-22T09:31:24.473Z,8.28
2018-03-22T09:33:52.549Z,8.31
2018-03-22T09:36:20.068Z,8.24
2018-03-22T09:38:47.522Z,7.92
2018-03-22T09:41:15.859Z,8.24
2018-03-22T09:43:43.309Z,7.76
2018-03-22T09:46:10.778Z,8.32
2018-03-22T09:48:38.536Z,8.38
2018-03-22T09:51:06.001Z,8.68
2018-03-22T09:53:33.458Z,9.01
2018-03-22T09:56:01.224Z,9.44
2018-03-22T09:58:28.696Z,9.04
2018-03-22T10:00:56.537Z,9.29
2018-03-22T10:03:24.529Z,7.98
2018-03-22T10:05:52.373Z,8.77
2018-03-22T10:08:19.834Z,9.58
2018-03-22T10:10:47.856Z,10.15
2018-03-22T10:13:15.311Z,9.41
2018-03-22T10:15:42.768Z,9.49
2018-03-22T10:18:10.510Z,9.13
2018-03-22T10:20:37.973Z,10.14
2018-03-22T10:23:05.438Z,10.99
2018-03-22T10:25:33.205Z,9.33
2018-03-22T10:28:00.663Z,9.69
2018-03-22T10:30:28.127Z,9.76
2018-03-22T10:32:55.889Z,10.80
2018-03-22T10:35:23.422Z,10.30
2018-03-22T10:37:51.206Z,10.10
2018-03-22T10:40:19.201Z,10.48
2018-03-22T10:42:46.661Z,10.08
2018-03-22T10:45:14.120Z,10.20
2018-03-22T10:47:41.874Z,10.33
2018-03-22T10:50:09.337Z,10.85
2018-03-22T10:52:36.809Z,10.64
2018-03-22T10:55:04.565Z,11.38
2018-03-22T10:57:32.030Z,12.00
2018-03-22T10:59:59.489Z,11.93
2018-03-22T11:02:32.783Z,11.43
2018-03-22T11:05:00.246Z,10.87
2018-03-22T11:07:27.708Z,10.66
2018-03-22T11:09:55.680Z,12.47
2018-03-22T11:12:23.137Z,11.37
2018-03-22T11:14:50.601Z,11.17
2018-03-22T11:17:18.466Z,11.82
2018-03-22T11:19:45.935Z,12.28
2018-03-22T11:22:13.408Z,12.80
2018-03-22T11:24:41.137Z,12.89
2018-03-22T11:27:08.861Z,12.43
2018-03-22T11:29:36.329Z,12.02
2018-03-22T11:32:04.141Z,12.74
2018-03-22T11:34:31.603Z,13.36
2018-03-22T11:36:59.069Z,13.45
2018-03-22T11:39:28.985Z,13.81
2018-03-22T11:41:56.450Z,15.59
2018-03-22T11:44:23.909Z,14.29
2018-03-22T11:46:51.669Z,14.44
2018-03-22T11:49:19.145Z,15.52
2018-03-22T11:51:46.629Z,15.39
2018-03-22T11:54:14.353Z,16.15
2018-03-22T11:56:41.811Z,13.90
2018-03-22T11:59:09.289Z,14.71
2018-03-22T12:01:36.969Z,14.79
2018-03-22T12:04:04.439Z,13.30
2018-03-22T12:06:31.907Z,15.56
2018-03-22T12:08:59.733Z,15.13
2018-03-22T12:11:27.211Z,15.84
2018-03-22T12:13:54.675Z,16.25
2018-03-22T12:16:22.405Z,16.69
2018-03-22T12:18:49.873Z,16.30
2018-03-22T12:21:17.334Z,15.41
2018-03-22T12:23:45.112Z,15.45
2018-03-22T12:26:12.568Z,17.45
2018-03-22T12:28:40.071Z,19.20
2018-03-22T12:31:07.790Z,17.74
2018-03-22T12:33:35.262Z,16.96
2018-03-22T12:36:02.720Z,17.50
2018-03-22T12:38:30.470Z,17.35
2018-03-22T12:40:58.630Z,16.63
2018-03-22T12:43:26.122Z,18.07
2018-03-22T12:45:54.080Z,16.30
2018-03-22T12:48:21.541Z,17.36
2018-03-22T12:50:49.005Z,17.21
2018-03-22T12:53:16.726Z,15.97
2018-03-22T12:55:44.180Z,16.11
2018-03-22T12:58:11.647Z,15.48
2018-03-22T13:00:39.462Z,16.73
2018-03-22T13:03:06.945Z,17.05
2018-03-22T13:05:34.417Z,17.85
2018-03-22T13:08:02.153Z,16.63
2018-03-22T13:10:29.620Z,16.65
2018-03-22T13:12:57.084Z,17.27
2018-03-22T13:15:24.833Z,18.11
2018-03-22T13:17:52.302Z,17.23
2018-03-22T13:20:19.771Z,16.84
2018-03-22T13:22:47.562Z,17.73
2018-03-22T13:25:15.026Z,18.79
2018-03-22T13:27:42.498Z,17.91
2018-03-22T13:30:10.506Z,18.38
2018-03-22T13:32:37.973Z,18.36
2018-03-22T13:35:05.427Z,19.96
2018-03-22T13:37:33.110Z,19.50
2018-03-22T13:40:00.578Z,18.35
2018-03-22T13:42:28.518Z,20.13
2018-03-22T13:44:56.498Z,18.73
2018-03-22T13:47:24.110Z,18.39
2018-03-22T13:49:51.577Z,16.12
2018-03-22T13:52:19.500Z,16.09
2018-03-22T13:54:46.957Z,15.88
2018-03-22T13:57:16.009Z,17.51
2018-03-22T13:59:43.601Z,14.62
2018-03-22T14:02:11.063Z,15.61
2018-03-22T14:04:38.535Z,14.15
2018-03-22T14:07:06.658Z,15.15
2018-03-22T14:09:34.119Z,16.14
2018-03-22T14:12:01.582Z,16.67
2018-03-22T14:14:29.401Z,17.46
2018-03-22T14:16:56.880Z,15.58
2018-03-22T14:19:24.345Z,16.61
2018-03-22T14:21:52.397Z,15.60
2018-03-22T14:24:19.861Z,14.20
2018-03-22T14:26:47.361Z,14.38
2018-03-22T14:29:15.310Z,14.73
2018-03-22T14:31:42.768Z,14.90
2018-03-22T14:34:10.230Z,13.88
2018-03-22T14:36:38.022Z,15.08
2018-03-22T14:39:05.502Z,14.70
2018-03-22T14:41:32.968Z,14.56
2018-03-22T14:44:01.678Z,15.44
2018-03-22T14:46:29.142Z,16.76
2018-03-22T14:48:56.614Z,16.54
2018-03-22T14:51:24.373Z,15.75
2018-03-22T14:53:51.909Z,14.93
2018-03-22T14:56:19.380Z,14.43
2018-03-22T14:58:47.360Z,14.80
2018-03-22T15:01:14.813Z,14.40
2018-03-22T15:03:42.278Z,14.58
2018-03-22T15:06:10.049Z,15.78
2018-03-22T15:08:37.525Z,13.84
2018-03-22T15:11:05.004Z,13.89
2018-03-22T15:13:33.662Z,14.76
2018-03-22T15:16:01.125Z,14.18
2018-03-22T15:18:28.586Z,14.62
2018-03-22T15:20:56.358Z,15.19
2018-03-22T15:23:23.828Z,14.73
2018-03-22T15:25:51.293Z,15.40
2018-03-22T15:28:19.074Z,14.60
2018-03-22T15:30:46.509Z,15.12
2018-03-22T15:33:13.975Z,14.08
2018-03-22T15:35:42.024Z,14.87
2018-03-22T15:38:09.492Z,14.14
2018-03-22T15:40:36.962Z,13.27
2018-03-22T15:43:05.017Z,14.25
2018-03-22T15:45:33.166Z,14.37
2018-03-22T15:48:00.641Z,13.20
2018-03-22T15:50:28.641Z,14.07
2018-03-22T15:52:56.109Z,13.92
2018-03-22T15:55:23.583Z,13.95
2018-03-22T15:57:51.328Z,13.32
2018-03-22T16:00:18.793Z,13.84
2018-03-22T16:02:46.249Z,14.49
2018-03-22T16:05:14.017Z,13.43
2018-03-22T16:07:41.484Z,14.41
2018-03-22T16:10:08.945Z,14.02
2018-03-22T16:12:36.689Z,14.49
2018-03-22T16:15:04.145Z,13.24
2018-03-22T16:17:31.617Z,13.79
2018-03-22T16:19:59.379Z,13.20
2018-03-22T16:22:26.842Z,13.27
2018-03-22T16:24:54.306Z,13.11
2018-03-22T16:27:22.069Z,13.44
2018-03-22T16:29:49.544Z,13.12
2018-03-22T16:32:17.025Z,13.39
2018-03-22T16:34:45.066Z,13.41
2018-03-22T16:37:12.529Z,12.51
2018-03-22T16:39:39.989Z,13.19
2018-03-22T16:42:07.757Z,13.43
2018-03-22T16:44:35.226Z,12.85
2018-03-22T16:47:03.353Z,12.39
2018-03-22T16:49:31.051Z,13.00
2018-03-22T16:51:58.517Z,13.91
2018-03-22T16:54:25.982Z,13.85
2018-03-22T16:56:53.745Z,13.18
2018-03-22T16:59:21.209Z,13.42
2018-03-22T17:01:48.670Z,12.42
2018-03-22T17:04:16.440Z,13.10
2018-03-22T17:06:43.899Z,12.13
2018-03-22T17:09:11.366Z,11.79
2018-03-22T17:11:39.108Z,11.51
2018-03-22T17:14:06.577Z,11.72
2018-03-22T17:16:34.043Z,11.94
2018-03-22T17:19:01.806Z,12.22
2018-03-22T17:21:29.308Z,12.35
2018-03-22T17:23:56.774Z,12.83
2018-03-22T17:26:24.765Z,12.86
2018-03-22T17:28:52.237Z,13.28
2018-03-22T17:31:19.705Z,13.51
2018-03-22T17:33:48.418Z,12.19
2018-03-22T17:36:15.889Z,12.84
2018-03-22T17:38:43.364Z,13.61
2018-03-22T17:41:11.106Z,13.34
2018-03-22T17:43:38.598Z,13.22
2018-03-22T17:46:06.066Z,12.91
2018-03-22T17:48:34.385Z,12.91
2018-03-22T17:51:01.840Z,12.69
2018-03-22T17:53:29.420Z,12.58
2018-03-22T17:55:57.389Z,11.90
2018-03-22T17:58:24.841Z,11.77
2018-03-22T18:00:52.302Z,11.66
2018-03-22T18:03:20.077Z,12.70
2018-03-22T18:05:47.540Z,11.18
2018-03-22T18:08:15.006Z,10.99
2018-03-22T18:10:42.767Z,11.09
2018-03-22T18:13:10.244Z,10.59
2018-03-22T18:15:37.725Z,10.98
2018-03-22T18:18:05.449Z,11.03
2018-03-22T18:20:32.906Z,11.01
2018-03-22T18:23:00.369Z,10.80
2018-03-22T18:25:28.168Z,11.10
2018-03-22T18:27:55.628Z,10.55
2018-03-22T18:30:23.095Z,11.31
2018-03-22T18:32:50.824Z,10.65
2018-03-22T18:35:18.336Z,11.11
2018-03-22T18:37:45.788Z,10.79
2018-03-22T18:40:13.550Z,11.08
2018-03-22T18:42:40.977Z,11.05
2018-03-22T18:45:08.441Z,11.01
2018-03-22T18:47:36.194Z,11.02
2018-03-22T18:50:04.341Z,11.19
2018-03-22T18:52:31.811Z,11.03
2018-03-22T18:54:59.809Z,11.45
2018-03-22T18:57:27.264Z,11.18
2018-03-22T18:59:54.737Z,10.49
2018-03-22T19:02:22.528Z,11.28
2018-03-22T19:04:50.001Z,10.89
2018-03-22T19:07:17.485Z,10.56
2018-03-22T19:09:45.177Z,10.21
2018-03-22T19:12:12.638Z,10.44
2018-03-22T19:14:40.099Z,11.17
2018-03-22T19:17:07.693Z,11.02
2018-03-22T19:19:35.159Z,11.05
2018-03-22T19:22:02.611Z,9.96
2018-03-22T19:24:30.565Z,10.42
2018-03-22T19:26:58.039Z,9.74
2018-03-22T19:29:25.504Z,9.29
2018-03-22T19:31:53.590Z,9.61
2018-03-22T19:34:21.031Z,9.95
2018-03-22T19:36:48.482Z,9.52
2018-03-22T19:39:16.852Z,10.42
2018-03-22T19:41:44.321Z,10.52
2018-03-22T19:44:11.794Z,10.91
2018-03-22T19:46:39.726Z,10.96
2018-03-22T19:49:07.182Z,10.43
2018-03-22T19:51:35.141Z,10.57
2018-03-22T19:54:02.857Z,10.33
2018-03-22T19:56:30.347Z,10.50
2018-03-22T19:58:58.137Z,10.51
2018-03-22T20:01:26.452Z,10.67
2018-03-22T20:03:53.981Z,10.69
2018-03-22T20:06:21.460Z,10.42
2018-03-22T20:08:49.487Z,10.59
2018-03-22T20:11:16.949Z,10.00
2018-03-22T20:13:44.407Z,10.56
2018-03-22T20:16:12.434Z,10.98
2018-03-22T20:18:39.898Z,10.90
2018-03-22T20:21:07.362Z,10.59
2018-03-22T20:23:35.738Z,10.98
2018-03-22T20:26:03.209Z,10.69
2018-03-22T20:28:31.023Z,11.13
2018-03-22T20:30:59.008Z,11.41
2018-03-22T20:33:26.505Z,10.85
2018-03-22T20:35:53.965Z,11.15
2018-03-22T20:38:21.721Z,9.95
2018-03-22T20:40:49.179Z,10.12
2018-03-22T20:43:16.656Z,10.32
2018-03-22T20:45:44.318Z,11.23
2018-03-22T20:48:11.777Z,11.16
2018-03-22T20:50:39.239Z,10.78
2018-03-22T20:53:07.106Z,11.02
2018-03-22T20:55:34.567Z,10.87
2018-03-22T20:58:02.022Z,9.90
2018-03-22T21:00:29.790Z,10.80
2018-03-22T21:02:57.256Z,10.17
2018-03-22T21:05:24.712Z,11.07
2018-03-22T21:07:52.741Z,11.05
2018-03-22T21:10:20.220Z,10.38
2018-03-22T21:12:47.686Z,9.66
2018-03-22T21:15:15.469Z,8.61
2018-03-22T21:17:42.932Z,8.92
2018-03-22T21:20:10.402Z,8.95
2018-03-22T21:22:38.153Z,9.26
2018-03-22T21:25:05.606Z,8.88
2018-03-22T21:27:33.060Z,8.72
2018-03-22T21:30:00.856Z,8.33
2018-03-22T21:32:28.312Z,8.09
2018-03-22T21:34:55.777Z,8.78
2018-03-22T21:37:23.526Z,8.86
2018-03-22T21:39:52.240Z,8.54
2018-03-22T21:42:19.699Z,8.73
2018-03-22T21:44:47.450Z,8.59
2018-03-22T21:47:26.537Z,8.13
2018-03-22T21:49:54.345Z,8.19
2018-03-22T21:52:33.568Z,7.49
2018-03-22T21:55:01.257Z,8.51
2018-03-22T21:57:28.721Z,8.29
2018-03-22T21:59:56.181Z,8.02
2018-03-22T22:02:23.936Z,8.52
2018-03-22T22:04:51.394Z,8.32
2018-03-22T22:07:18.860Z,8.62
2018-03-22T22:09:46.629Z,8.63
2018-03-22T22:12:14.090Z,7.76
2018-03-22T22:14:41.549Z,8.22
2018-03-22T22:17:09.317Z,8.42
2018-03-22T22:19:37.104Z,8.14
2018-03-22T22:22:04.568Z,8.56
2018-03-22T22:24:32.608Z,7.91
2018-03-22T22:27:00.114Z,7.89
2018-03-22T22:29:27.541Z,8.36
2018-03-22T22:31:55.303Z,8.53
2018-03-22T22:34:22.761Z,7.82
2018-03-22T22:36:50.219Z,8.27
2018-03-22T22:39:17.986Z,7.56
2018-03-22T22:41:47.361Z,7.64
2018-03-22T22:44:14.819Z,8.71
2018-03-22T22:46:42.406Z,8.04
2018-03-22T22:49:09.878Z,8.17
2018-03-22T22:51:37.346Z,8.27
2018-03-22T22:54:05.179Z,7.62
2018-03-22T22:56:32.641Z,7.89
2018-03-22T22:59:00.110Z,7.97
2018-03-22T23:01:28.505Z,7.14
2018-03-22T23:03:55.957Z,7.37
2018-03-22T23:06:24.477Z,8.14
2018-03-22T23:08:52.221Z,7.83
2018-03-22T23:11:19.688Z,7.78
2018-03-22T23:13:47.141Z,8.03
2018-03-22T23:16:15.108Z,7.79
2018-03-22T23:18:42.570Z,8.19
2018-03-22T23:21:10.021Z,8.10
2018-03-22T23:23:37.784Z,8.26
2018-03-22T23:26:05.243Z,8.55
2018-03-22T23:28:32.707Z,7.99
2018-03-22T23:31:00.485Z,7.67
2018-03-22T23:33:27.947Z,7.44
2018-03-22T23:35:55.408Z,7.18
2018-03-22T23:38:23.190Z,7.88
2018-03-22T23:40:50.645Z,7.49
2018-03-22T23:43:18.465Z,7.57
2018-03-22T23:45:46.338Z,7.61
2018-03-22T23:48:13.789Z,7.67
2018-03-22T23:50:41.245Z,7.67
2018-03-22T23:53:09.158Z,7.90
2018-03-22T23:55:36.609Z,7.66
2018-03-22T23:58:04.069Z,7.90
